Grimstrup, Denmark
Current Conditions -  °F | °C
As of 5:50 AM on Sunday 23 Nov 2014 (Local Time) from EKEB Reporting Station
Overcast Overcast  
Wind Chill: 37°   Ceiling: 1800
Heat Index: 43°   Visibility: 4mi
Dew Point: 41°   Wind: 9mph
Humidity: 93%   Direction: 120°ESE
Pressure: 30.06"   Gusts: NA
Location:  55.53°N, 8.66°E
Report Text: EKEB 230450Z AUTO 12008KT 090V150 6000NDV FEW013/// OVC018///06/05 Q1018
Loading
Personal Weather Stations






























Interactive Weather Map New forecast layout! Learn more

10-Day Weather Forecast

Advertisements
Track Severe Weather on mobile